• Join FlightAware (Why Join?)
  • Login
  • US Flag 
09:43PM EDT


 

Airport Tracker/Info


-or-


 

Live Flight TrackerFlight Track Log ✈ CES542 ✈ 09-Jul-2013 ✈ VTBS / BKK - ZSPD / PVG

Flight Track Log - Related Links

Times and Time Zones

All times are in EDT time to prevent confusion due to time zone crossing. See the CES542 flight status page for this flight to view local times or setup timezone preferences in your user account.

Time Position Orientation Groundspeed Altitude Reporting Facility
EDT Latitude Longitude Course Direction KTS MPH feet Rate Location/Type
06:48AM 16.5730 103.7226 44° Northeast  Level Estimated
06:49AM 16.6527 103.8064 45° Northeast  Level Estimated
06:50AM 16.7324 103.8904 45° Northeast  Level Estimated
06:51AM 16.8121 103.9744 45° Northeast  Level Estimated
06:52AM 16.8918 104.0584 45° Northeast  Level Estimated
06:53AM 16.9714 104.1425 45° Northeast  Level Estimated
06:54AM 17.0509 104.2268 45° Northeast  Level Estimated
06:55AM 17.1305 104.3110 45° Northeast  Level Estimated
06:56AM 17.2100 104.3954 45° Northeast  Level Estimated
06:57AM 17.2895 104.4798 45° Northeast  Level Estimated
06:58AM 17.3689 104.5643 45° Northeast  Level Estimated
06:59AM 17.4483 104.6489 45° Northeast  Level Estimated
07:00AM 17.5277 104.7335 45° Northeast  Level Estimated
07:01AM 17.6070 104.8182 45° Northeast  Level Estimated
07:02AM 17.6863 104.9030 46° Northeast  Level Estimated
07:03AM 17.7656 104.9879 46° Northeast  Level Estimated
07:04AM 17.8448 105.0728 46° Northeast  Level Estimated
07:05AM 17.9240 105.1578 46° Northeast  Level Estimated
07:06AM 18.0032 105.2429 46° Northeast  Level Estimated
07:07AM 18.0823 105.3281 46° Northeast  Level Estimated
07:08AM 18.1613 105.4133 46° Northeast  Level Estimated
07:09AM 18.2404 105.4986 46° Northeast  Level Estimated
07:11AM 18.4418 105.7166 46° Northeast  Level Estimated
07:13AM 18.5562 105.8407 46° Northeast  Level Estimated
07:14AM 18.6350 105.9264 46° Northeast  Level Estimated
07:15AM 18.7138 106.0122 46° Northeast  Level Estimated
07:16AM 18.7926 106.0981 46° Northeast  Level Estimated
07:17AM 18.8713 106.1840 46° Northeast  Level Estimated
07:18AM 18.9500 106.2700 46° Northeast  Level Estimated
07:19AM 19.0287 106.3561 46° Northeast  Level Estimated
07:20AM 19.1073 106.4424 46° Northeast  Level Estimated
07:21AM 19.1858 106.5286 46° Northeast  Level Estimated
07:22AM 19.2644 106.6150 46° Northeast  Level Estimated
07:23AM 19.3429 106.7014 46° Northeast  Level Estimated
07:24AM 19.4213 106.7880 46° Northeast  Level Estimated
07:25AM 19.4997 106.8746 46° Northeast  Level Estimated
07:26AM 19.5781 106.9613 46° Northeast  Level Estimated
07:27AM 19.6564 107.0480 46° Northeast  Level Estimated
07:28AM 19.7347 107.1349 46° Northeast  Level Estimated
07:29AM 19.8129 107.2218 46° Northeast  Level Estimated
07:30AM 19.8911 107.3089 46° Northeast  Level Estimated
07:31AM 19.9693 107.3960 46° Northeast  Level Estimated
07:32AM 20.0474 107.4832 46° Northeast  Level Estimated
07:33AM 20.1255 107.5705 46° Northeast  Level Estimated
07:34AM 20.2035 107.6579 46° Northeast  Level Estimated
07:35AM 20.2815 107.7454 46° Northeast  Level Estimated
07:36AM 20.3594 107.8329 46° Northeast  Level Estimated
07:37AM 20.4373 107.9205 47° Northeast  Level Estimated
07:38AM 20.5152 108.0083 47° Northeast  Level Estimated
07:39AM 20.5930 108.0961 47° Northeast  Level Estimated
07:40AM 20.6708 108.1840 47° Northeast  Level Estimated
07:41AM 20.7485 108.2720 47° Northeast  Level Estimated
07:42AM 20.8262 108.3601 47° Northeast  Level Estimated
07:43AM 20.9038 108.4483 47° Northeast  Level Estimated
07:44AM 20.9814 108.5366 47° Northeast  Level Estimated
07:45AM 21.0589 108.6249 47° Northeast  Level Estimated
07:46AM 21.1364 108.7134 47° Northeast  Level Estimated
07:47AM 21.2139 108.8019 47° Northeast  Level Estimated
07:48AM 21.2913 108.8906 47° Northeast  Level Estimated
07:49AM 21.3686 108.9793 47° Northeast  Level Estimated
07:50AM 21.4459 109.0682 47° Northeast  Level Estimated
07:51AM 21.5232 109.1571 47° Northeast  Level Estimated
07:52AM 21.6004 109.2461 47° Northeast  Level Estimated
07:53AM 21.6776 109.3352 47° Northeast  Level Estimated
07:54AM 21.7547 109.4244 47° Northeast  Level Estimated
07:55AM 21.8318 109.5137 47° Northeast  Level Estimated
07:56AM 21.9088 109.6031 47° Northeast  Level Estimated
07:57AM 21.9858 109.6926 47° Northeast  Level Estimated
07:58AM 22.0627 109.7822 47° Northeast  Level Estimated
07:59AM 22.1396 109.8719 47° Northeast  Level Estimated
08:00AM 22.2164 109.9617 47° Northeast  Level Estimated
08:01AM 22.2932 110.0516 47° Northeast  Level Estimated
08:02AM 22.3699 110.1416 47° Northeast  Level Estimated
08:03AM 22.4466 110.2317 47° Northeast  Level Estimated
08:04AM 22.5232 110.3219 47° Northeast  Level Estimated
08:05AM 22.5998 110.4122 47° Northeast  Level Estimated
08:06AM 22.6763 110.5026 47° Northeast  Level Estimated
08:07AM 22.7528 110.5930 47° Northeast  Level Estimated
08:08AM 22.8293 110.6836 48° Northeast  Level Estimated
08:09AM 22.9056 110.7743 48° Northeast  Level Estimated
08:10AM 22.9820 110.8651 48° Northeast  Level Estimated
08:11AM 23.0582 110.9560 48° Northeast  Level Estimated
08:12AM 23.1345 111.0470 48° Northeast  Level Estimated
08:13AM 23.2106 111.1381 48° Northeast  Level Estimated
08:14AM 23.2867 111.2293 48° Northeast  Level Estimated
08:15AM 23.3628 111.3206 48° Northeast  Level Estimated
08:16AM 23.4388 111.4121 48° Northeast  Level Estimated
08:17AM 23.5148 111.5036 48° Northeast  Level Estimated
08:18AM 23.5907 111.5952 48° Northeast  Level Estimated
08:19AM 23.6665 111.6869 48° Northeast  Level Estimated
08:20AM 23.7423 111.7788 48° Northeast  Level Estimated
08:21AM 23.8181 111.8707 48° Northeast  Level Estimated
08:22AM 23.8937 111.9628 48° Northeast  Level Estimated
08:23AM 23.9694 112.0549 48° Northeast  Level Estimated
08:24AM 24.0450 112.1472 48° Northeast  Level Estimated
08:25AM 24.1205 112.2396 48° Northeast  Level Estimated
08:26AM 24.1959 112.3321 48° Northeast  Level Estimated
08:27AM 24.2714 112.4247 48° Northeast  Level Estimated
08:28AM 24.3467 112.5174 48° Northeast  Level Estimated
08:29AM 24.4220 112.6102 48° Northeast  Level Estimated
08:30AM 24.4972 112.7031 48° Northeast  Level Estimated
08:31AM 24.5724 112.7962 48° Northeast  Level Estimated
08:32AM 24.6476 112.8893 48° Northeast  Level Estimated
08:33AM 24.7226 112.9826 48° Northeast  Level Estimated
08:34AM 24.7976 113.0760 48° Northeast  Level Estimated
08:35AM 24.8726 113.1695 49° Northeast  Level Estimated
08:36AM 24.9475 113.2631 49° Northeast  Level Estimated
08:37AM 25.0223 113.3568 49° Northeast  Level Estimated
08:38AM 25.0971 113.4506 49° Northeast  Level Estimated
08:39AM 25.1718 113.5446 49° Northeast  Level Estimated
08:40AM 25.2465 113.6386 49° Northeast  Level Estimated
08:41AM 25.3211 113.7328 49° Northeast  Level Estimated
08:42AM 25.3956 113.8271 49° Northeast  Level Estimated
08:43AM 25.4701 113.9215 49° Northeast  Level Estimated
08:44AM 25.5445 114.0160 49° Northeast  Level Estimated
08:45AM 25.6189 114.1107 49° Northeast  Level Estimated
08:46AM 25.6932 114.2054 49° Northeast  Level Estimated
08:47AM 25.7674 114.3003 49° Northeast  Level Estimated
08:48AM 25.8416 114.3953 49° Northeast  Level Estimated
08:49AM 25.9157 114.4904 49° Northeast  Level Estimated
08:50AM 25.9898 114.5857 49° Northeast  Level Estimated
08:51AM 26.0637 114.6810 49° Northeast  Level Estimated
08:52AM 26.1377 114.7765 49° Northeast  Level Estimated
08:53AM 26.2115 114.8721 49° Northeast  Level Estimated
08:54AM 26.2853 114.9678 49° Northeast  Level Estimated
08:55AM 26.3591 115.0637 49° Northeast  Level Estimated
08:56AM 26.4328 115.1596 49° Northeast  Level Estimated
08:57AM 26.5064 115.2557 49° Northeast  Level Estimated
08:58AM 26.5799 115.3519 49° Northeast  Level Estimated
08:59AM 26.6534 115.4483 50° Northeast  Level Estimated
09:00AM 26.7268 115.5447 50° Northeast  Level Estimated
09:01AM 26.8001 115.6413 50° Northeast  Level Estimated
09:02AM 26.8734 115.7380 50° Northeast  Level Estimated
09:03AM 26.9466 115.8348 50° Northeast  Level Estimated
09:04AM 27.0198 115.9318 50° Northeast  Level Estimated
09:05AM 27.0929 116.0289 50° Northeast  Level Estimated
09:06AM 27.1659 116.1261 50° Northeast  Level Estimated
09:07AM 27.2388 116.2234 50° Northeast  Level Estimated
09:08AM 27.3117 116.3209 50° Northeast  Level Estimated
09:09AM 27.3845 116.4185 50° Northeast  Level Estimated
09:10AM 27.4573 116.5162 50° Northeast  Level Estimated
09:11AM 27.5300 116.6141 50° Northeast  Level Estimated
09:12AM 27.6026 116.7120 50° Northeast  Level Estimated
09:13AM 27.6751 116.8102 50° Northeast  Level Estimated
09:14AM 27.7476 116.9084 50° Northeast  Level Estimated
09:15AM 27.8200 117.0068 50° Northeast  Level Estimated
09:16AM 27.8923 117.1053 50° Northeast  Level Estimated
09:17AM 27.9646 117.2039 50° Northeast  Level Estimated
09:18AM 28.0368 117.3027 50° Northeast  Level Estimated
09:19AM 28.1089 117.4016 50° Northeast  Level Estimated
09:20AM 28.1809 117.5006 50° Northeast  Level Estimated
09:21AM 28.2529 117.5998 50° Northeast  Level Estimated
09:22AM 28.3248 117.6991 51° Northeast  Level Estimated
09:23AM 28.3967 117.7985 51° Northeast  Level Estimated
09:24AM 28.4684 117.8981 51° Northeast  Level Estimated
09:25AM 28.5401 117.9978 51° Northeast  Level Estimated
09:26AM 28.6117 118.0976 51° Northeast  Level Estimated
09:27AM 28.6833 118.1976 51° Northeast  Level Estimated
09:28AM 28.7547 118.2977 51° Northeast  Level Estimated
09:29AM 28.8262 118.3979 51° Northeast  Level Estimated
09:30AM 28.8975 118.4983 51° Northeast  Level Estimated
09:31AM 28.9687 118.5989 51° Northeast  Level Estimated
09:32AM 29.0399 118.6995 51° Northeast  Level Estimated
09:33AM 29.1110 118.8003 51° Northeast  Level Estimated
09:34AM 29.1820 118.9013 51° Northeast  Level Estimated
09:35AM 29.2530 119.0023 51° Northeast  Level Estimated
09:36AM 29.3238 119.1036 51° Northeast  Level Estimated
09:37AM 29.3946 119.2049 51° Northeast  Level Estimated
09:38AM 29.4653 119.3064 51° Northeast  Level Estimated
09:39AM 29.5360 119.4081 51° Northeast  Level Estimated
09:40AM 29.6065 119.5099 51° Northeast  Level Estimated
09:41AM 29.6770 119.6118 51° Northeast  Level Estimated
09:42AM 29.7474 119.7139 52° Northeast  Level Estimated
09:43AM 29.8178 119.8161 52° Northeast  Level Estimated
09:44AM 29.8880 119.9184 52° Northeast  Level Estimated
09:45AM 29.9582 120.0209 52° Northeast  Level Estimated
09:46AM 30.0283 120.1236 52° Northeast  Level Estimated
09:47AM 30.0983 120.2264 52° Northeast  Level Estimated
09:48AM 30.1682 120.3293 52° Northeast  Level Estimated
09:49AM 30.2381 120.4324 52° Northeast  Level Estimated
09:50AM 30.3078 120.5356 52° Northeast  Level Estimated
09:51AM 30.3775 120.6390 52° Northeast  Level Estimated
09:52AM 30.4471 120.7426 52° Northeast  Level Estimated
09:53AM 30.5167 120.8462 52° Northeast  Level Estimated
09:54AM 30.5861 120.9501 52° Northeast  Level Estimated
09:55AM 30.6555 121.0540 52° Northeast  Level Estimated
09:56AM 30.7248 121.1581 52° Northeast  Level Estimated
09:57AM 30.7939 121.2624 52° Northeast  Level Estimated
09:58AM 30.8631 121.3668 52° Northeast  Level Estimated
09:59AM 30.9321 121.4714 52° Northeast  Level Estimated
10:00AM 31.0010 121.5761 52° Northeast  Level Estimated
10:01AM 31.0699 121.6810 53° Northeast  Level Estimated
10:02AM 31.1387 121.7860 53° Northeast  Level Estimated
10:03AM 31.1428 121.7924 53° Northeast  Level Estimated
10:04AM 31.1428 121.7924 221° Southwest  Level Estimated
10:05AM 31.1428 121.7924 221° Southwest  Level Estimated
10:06AM 31.1428 121.7924 221° Southwest  Level Estimated
10:07AM 31.1428 121.7924 221° Southwest  Level Estimated
10:08AM 31.1428 121.7924 221° Southwest  Level Estimated
10:09AM 31.1428 121.7924 221° Southwest  Level Estimated
10:10AM 31.1428 121.7924 221° Southwest  Level Estimated
10:11AM 31.1428 121.7924 221° Southwest  Level Estimated
10:12AM 31.1428 121.7924 221° Southwest  Level Estimated
10:13AM 31.1428 121.7924 221° Southwest  Level Estimated
10:14AM 31.1428 121.7924 221° Southwest  Level Estimated
10:15AM 31.1428 121.7924 221° Southwest  Level Estimated
10:16AM 31.1428 121.7924 221° Southwest  Level Estimated
10:17AM 31.1428 121.7924 221° Southwest  Level Estimated
10:18AM 31.1428 121.7924 221° Southwest  Level Estimated